createdAt,value
2023-02-05T00:02:07.339Z,100289.88
2023-02-05T00:04:35.854Z,100280.16
2023-02-05T00:07:04.259Z,100285.19
2023-02-05T00:09:32.042Z,100291.84
2023-02-05T00:12:00.352Z,100288.03
2023-02-05T00:14:27.879Z,100282.16
2023-02-05T00:16:54.879Z,100279.09
2023-02-05T00:19:22.306Z,100284.13
2023-02-05T00:21:49.997Z,100292.00
2023-02-05T00:24:17.358Z,100277.94
2023-02-05T00:26:44.674Z,100292.50
2023-02-05T00:29:12.261Z,100291.81
2023-02-05T00:31:39.319Z,100299.69
2023-02-05T00:34:06.576Z,100294.31
2023-02-05T00:36:33.890Z,100296.47
2023-02-05T00:39:01.005Z,100290.97
2023-02-05T00:41:28.518Z,100294.31
2023-02-05T00:43:55.365Z,100292.13
2023-02-05T00:46:22.903Z,100296.47
2023-02-05T00:48:49.843Z,100292.81
2023-02-05T00:51:17.151Z,100294.13
2023-02-05T00:53:44.684Z,100285.25
2023-02-05T00:56:11.649Z,100282.88
2023-02-05T00:58:39.062Z,100282.16
2023-02-05T01:01:06.601Z,100281.09
2023-02-05T01:03:36.287Z,100285.16
2023-02-05T01:06:03.533Z,100276.12
2023-02-05T01:08:31.089Z,100280.94
2023-02-05T01:10:58.570Z,100289.97
2023-02-05T01:13:26.149Z,100296.31
2023-02-05T01:15:53.397Z,100291.13
2023-02-05T01:18:20.756Z,100284.09
2023-02-05T01:20:47.877Z,100279.69
2023-02-05T01:23:15.058Z,100278.00
2023-02-05T01:25:42.090Z,100276.00
2023-02-05T01:28:09.764Z,100282.66
2023-02-05T01:30:37.159Z,100283.63
2023-02-05T01:33:04.728Z,100277.31
2023-02-05T01:35:32.764Z,100278.53
2023-02-05T01:38:01.710Z,100279.84
2023-02-05T01:40:28.745Z,100278.59
2023-02-05T01:42:56.391Z,100279.59
2023-02-05T01:45:23.313Z,100276.91
2023-02-05T01:47:56.162Z,100278.44
2023-02-05T01:50:38.014Z,100274.06
2023-02-05T01:53:10.415Z,100287.91
2023-02-05T01:56:00.204Z,100273.38
2023-02-05T01:58:32.533Z,100282.88
2023-02-05T02:00:59.905Z,100277.22
2023-02-05T02:03:31.050Z,100278.69
2023-02-05T02:05:58.395Z,100278.69
2023-02-05T02:08:25.713Z,100277.16
2023-02-05T02:10:55.605Z,100293.19
2023-02-05T02:13:24.315Z,100289.22
2023-02-05T02:15:52.500Z,100277.16
2023-02-05T02:18:28.466Z,100280.66
2023-02-05T02:21:09.368Z,100284.56
2023-02-05T02:23:52.796Z,100291.97
2023-02-05T02:26:44.102Z,100293.34
2023-02-05T02:29:20.135Z,100284.94
2023-02-05T02:31:57.446Z,100289.16
2023-02-05T02:34:36.943Z,100292.97
2023-02-05T02:37:12.793Z,100277.06
2023-02-05T02:39:52.993Z,100272.84
2023-02-05T02:42:29.155Z,100271.63
2023-02-05T02:45:05.149Z,100278.81
2023-02-05T02:47:49.149Z,100286.44
2023-02-05T02:50:33.131Z,100284.22
2023-02-05T02:53:33.974Z,100291.41
2023-02-05T02:56:02.730Z,100274.13
2023-02-05T02:58:52.625Z,100282.28
2023-02-05T03:01:24.352Z,100282.69
2023-02-05T03:03:57.249Z,100277.50
2023-02-05T03:06:27.093Z,100281.03
2023-02-05T03:09:00.290Z,100287.63
2023-02-05T03:11:27.786Z,100281.44
2023-02-05T03:13:56.227Z,100289.47
2023-02-05T03:16:25.994Z,100286.25
2023-02-05T03:18:55.041Z,100291.44
2023-02-05T03:21:30.054Z,100293.88
2023-02-05T03:23:57.253Z,100289.69
2023-02-05T03:26:25.703Z,100291.37
2023-02-05T03:28:53.517Z,100293.50
2023-02-05T03:31:35.968Z,100291.97
2023-02-05T03:34:52.028Z,100294.53
2023-02-05T03:37:42.797Z,100294.53
2023-02-05T03:40:38.287Z,100302.16
2023-02-05T03:43:31.157Z,100300.31
2023-02-05T03:46:04.363Z,100292.91
2023-02-05T03:48:40.632Z,100296.25
2023-02-05T03:51:32.689Z,100287.81
2023-02-05T03:54:06.654Z,100283.44
2023-02-05T03:56:47.379Z,100285.44
2023-02-05T03:59:17.057Z,100293.75
2023-02-05T04:01:45.625Z,100294.34
2023-02-05T04:04:13.486Z,100294.63
2023-02-05T04:06:40.737Z,100293.50
2023-02-05T04:09:08.345Z,100282.00
2023-02-05T04:11:35.245Z,100287.34
2023-02-05T04:14:02.387Z,100273.81
2023-02-05T04:16:29.614Z,100265.56
2023-02-05T04:18:56.462Z,100274.72
2023-02-05T04:21:24.007Z,100274.56
2023-02-05T04:27:07.564Z,100279.22
2023-02-05T04:29:34.861Z,100284.41
2023-02-05T04:32:02.509Z,100281.59
2023-02-05T04:34:29.810Z,100272.34
2023-02-05T04:36:57.185Z,100266.47
2023-02-05T04:39:24.174Z,100274.31
2023-02-05T04:41:51.491Z,100273.47
2023-02-05T04:44:19.198Z,100286.56
2023-02-05T04:46:46.451Z,100287.00
2023-02-05T04:49:14.005Z,100294.59
2023-02-05T04:51:41.254Z,100298.13
2023-02-05T04:54:08.457Z,100297.44
2023-02-05T04:56:35.279Z,100298.72
2023-02-05T04:59:02.790Z,100295.88
2023-02-05T05:01:30.038Z,100303.75
2023-02-05T05:03:57.297Z,100319.38
2023-02-05T05:06:24.808Z,100326.94
2023-02-05T05:08:51.663Z,100325.41
2023-02-05T05:11:20.131Z,100321.19
2023-02-05T05:13:47.458Z,100329.22
2023-02-05T05:16:15.078Z,100324.00
2023-02-05T05:18:42.462Z,100330.19
2023-02-05T05:21:09.589Z,100333.16
2023-02-05T05:23:37.437Z,100323.47
2023-02-05T05:26:09.718Z,100334.72
2023-02-05T05:28:37.372Z,100331.91
2023-02-05T05:31:10.406Z,100326.41
2023-02-05T05:33:38.303Z,100333.47
2023-02-05T05:36:06.341Z,100335.41
2023-02-05T05:38:33.642Z,100342.56
2023-02-05T05:41:20.339Z,100351.41
2023-02-05T05:43:48.023Z,100344.84
2023-02-05T05:46:24.077Z,100337.50
2023-02-05T05:48:53.534Z,100340.47
2023-02-05T05:51:21.800Z,100330.06
2023-02-05T05:53:49.576Z,100328.53
2023-02-05T05:56:17.983Z,100321.50
2023-02-05T05:58:46.152Z,100338.09
2023-02-05T06:01:14.612Z,100334.00
2023-02-05T06:03:42.071Z,100339.50
2023-02-05T06:06:10.488Z,100338.37
2023-02-05T06:08:37.674Z,100343.44
2023-02-05T06:11:05.045Z,100349.03
2023-02-05T06:13:31.889Z,100353.22
2023-02-05T06:15:59.340Z,100359.28
2023-02-05T06:18:26.165Z,100357.03
2023-02-05T06:20:53.330Z,100371.50
2023-02-05T06:23:20.432Z,100365.44
2023-02-05T06:25:48.207Z,100365.72
2023-02-05T06:28:15.063Z,100369.94
2023-02-05T06:30:42.376Z,100382.56
2023-02-05T06:33:11.634Z,100389.59
2023-02-05T06:35:39.435Z,100393.81
2023-02-05T06:38:14.290Z,100392.13
2023-02-05T06:40:44.971Z,100397.88
2023-02-05T06:43:12.584Z,100406.16
2023-02-05T06:45:50.289Z,100404.00
2023-02-05T06:48:18.644Z,100409.91
2023-02-05T06:50:46.368Z,100414.00
2023-02-05T06:53:13.695Z,100422.16
2023-02-05T06:55:41.287Z,100419.91
2023-02-05T06:58:08.519Z,100419.50
2023-02-05T07:00:36.732Z,100410.88
2023-02-05T07:03:04.707Z,100412.56
2023-02-05T07:05:34.329Z,100411.88
2023-02-05T07:08:04.077Z,100408.09
2023-02-05T07:10:31.299Z,100400.69
2023-02-05T07:12:58.589Z,100412.06
2023-02-05T07:15:26.283Z,100416.25
2023-02-05T07:17:53.565Z,100413.31
2023-02-05T07:20:20.537Z,100399.28
2023-02-05T07:22:48.166Z,100395.34
2023-02-05T07:25:15.651Z,100399.97
2023-02-05T07:27:43.010Z,100407.84
2023-02-05T07:30:11.084Z,100413.87
2023-02-05T07:32:38.028Z,100424.81
2023-02-05T07:35:05.965Z,100450.75
2023-02-05T07:37:33.359Z,100448.22
2023-02-05T07:40:00.652Z,100460.75
2023-02-05T07:42:28.603Z,100450.37
2023-02-05T07:44:57.504Z,100461.19
2023-02-05T07:47:24.753Z,100454.72
2023-02-05T07:49:52.310Z,100458.09
2023-02-05T07:52:19.516Z,100446.87
2023-02-05T07:54:46.665Z,100439.44
2023-02-05T07:57:13.857Z,100443.94
2023-02-05T07:59:47.072Z,100448.28
2023-02-05T08:02:14.665Z,100453.34
2023-02-05T08:04:44.281Z,100457.00
2023-02-05T08:07:14.679Z,100460.13
2023-02-05T08:09:42.055Z,100465.47
2023-02-05T08:12:08.995Z,100466.16
2023-02-05T08:14:36.872Z,100459.00
2023-02-05T08:17:51.124Z,100465.03
2023-02-05T08:20:20.130Z,100465.47
2023-02-05T08:22:47.412Z,100470.81
2023-02-05T08:25:16.054Z,100469.12
2023-02-05T08:27:46.470Z,100468.97
2023-02-05T08:30:17.197Z,100469.81
2023-02-05T08:32:49.752Z,100472.09
2023-02-05T08:35:20.002Z,100477.44
2023-02-05T08:37:48.816Z,100473.50
2023-02-05T08:40:15.981Z,100477.72
2023-02-05T08:42:43.637Z,100481.37
2023-02-05T08:45:12.961Z,100481.37
2023-02-05T08:47:44.710Z,100478.56
2023-02-05T08:50:17.616Z,100471.97
2023-02-05T08:53:03.250Z,100470.69
2023-02-05T08:55:30.449Z,100481.25
2023-02-05T08:57:58.118Z,100480.13
2023-02-05T09:00:25.245Z,100473.66
2023-02-05T09:02:53.059Z,100485.31
2023-02-05T09:05:20.410Z,100480.28
2023-02-05T09:07:49.527Z,100483.09
2023-02-05T09:10:23.141Z,100490.97
2023-02-05T09:12:50.871Z,100488.16
2023-02-05T09:15:22.085Z,100481.97
2023-02-05T09:17:50.029Z,100486.75
2023-02-05T09:20:18.243Z,100476.91
2023-02-05T09:22:45.718Z,100481.97
2023-02-05T09:25:12.957Z,100479.16
2023-02-05T09:27:40.591Z,100480.53
2023-02-05T09:30:12.292Z,100486.88
2023-02-05T09:32:39.959Z,100488.31
2023-02-05T09:35:09.371Z,100498.00
2023-02-05T09:37:43.121Z,100505.03
2023-02-05T09:40:25.884Z,100508.97
2023-02-05T09:43:05.469Z,100505.31
2023-02-05T09:45:41.896Z,100509.53
2023-02-05T09:48:50.065Z,100509.22
2023-02-05T09:51:35.928Z,100506.97
2023-02-05T09:54:17.620Z,100497.72
2023-02-05T09:56:53.853Z,100495.75
2023-02-05T09:59:24.272Z,100498.13
2023-02-05T10:02:05.875Z,100482.66
2023-02-05T10:04:36.662Z,100482.22
2023-02-05T10:07:11.498Z,100477.41
2023-02-05T10:10:18.733Z,100468.84
2023-02-05T10:35:07.221Z,100428.34
2023-02-05T10:37:55.544Z,100408.50
2023-02-05T10:40:27.799Z,100392.28
2023-02-05T10:43:05.165Z,100389.31
2023-02-05T10:45:33.233Z,100378.31
2023-02-05T10:48:29.168Z,100376.31
2023-02-05T10:51:07.785Z,100365.47
2023-02-05T10:53:41.575Z,100361.53
2023-02-05T10:56:17.735Z,100360.09
2023-02-05T10:59:01.022Z,100363.75
2023-02-05T11:01:37.165Z,100362.75
2023-02-05T11:11:20.034Z,100353.50
2023-02-05T11:14:07.476Z,100347.84
2023-02-05T11:16:38.683Z,100346.44
2023-02-05T11:19:19.624Z,100340.91
2023-02-05T11:21:49.907Z,100349.63
2023-02-05T11:24:30.780Z,100336.09
2023-02-05T11:27:15.815Z,100339.47
2023-02-05T11:29:47.352Z,100339.00
2023-02-05T11:32:36.827Z,100331.97
2023-02-05T11:35:25.046Z,100335.31
2023-02-05T11:38:06.763Z,100320.09
2023-02-05T11:40:34.834Z,100317.44
2023-02-05T11:43:17.759Z,100315.44
2023-02-05T11:45:52.130Z,100317.84
2023-02-05T11:52:41.729Z,100319.63
2023-02-05T11:55:25.762Z,100320.34
2023-02-05T11:58:07.325Z,100318.37
2023-02-05T12:00:36.990Z,100314.69
2023-02-05T12:03:23.677Z,100302.16
2023-02-05T12:06:03.736Z,100302.81
2023-02-05T12:08:40.153Z,100294.78
2023-02-05T12:11:14.806Z,100293.63
2023-02-05T12:13:53.743Z,100296.31
2023-02-05T12:16:58.223Z,100301.37
2023-02-05T12:19:34.307Z,100294.16
2023-02-05T12:22:27.455Z,100292.50
2023-02-05T12:25:09.889Z,100297.69
2023-02-05T12:27:56.271Z,100303.88
2023-02-05T12:31:11.743Z,100311.75
2023-02-05T12:34:00.740Z,100306.41
2023-02-05T12:36:50.303Z,100308.09
2023-02-05T12:39:30.006Z,100309.09
2023-02-05T12:42:18.830Z,100311.75
2023-02-05T12:44:58.780Z,100308.25
2023-02-05T12:47:45.809Z,100318.13
2023-02-05T12:50:39.343Z,100307.25
2023-02-05T12:53:32.589Z,100309.09
2023-02-05T12:56:37.894Z,100308.09
2023-02-05T12:59:45.085Z,100311.59
2023-02-05T13:02:34.009Z,100303.41
2023-02-05T13:05:05.020Z,100294.22
2023-02-05T13:07:39.097Z,100290.53
2023-02-05T13:10:15.238Z,100294.78
2023-02-05T13:12:52.038Z,100291.09
2023-02-05T13:15:23.181Z,100301.81
2023-02-05T13:18:02.374Z,100305.03
2023-02-05T13:20:52.058Z,100297.81
2023-02-05T13:23:38.800Z,100294.97
2023-02-05T13:26:26.886Z,100297.50
2023-02-05T13:29:08.102Z,100298.50
2023-02-05T13:31:41.047Z,100297.50
2023-02-05T13:34:12.517Z,100297.50
2023-02-05T13:37:12.029Z,100289.16
2023-02-05T13:44:24.346Z,100299.88
2023-02-05T13:47:18.886Z,100292.34
2023-02-05T13:49:59.378Z,100296.56
2023-02-05T13:53:23.048Z,100298.37
2023-02-05T13:56:15.581Z,100293.88
2023-02-05T13:58:49.611Z,100288.50
2023-02-05T14:01:30.451Z,100293.03
2023-02-05T14:04:23.537Z,100286.84
2023-02-05T14:07:04.769Z,100292.88
2023-02-05T14:10:06.905Z,100287.50
2023-02-05T14:12:39.066Z,100292.88
2023-02-05T14:15:19.210Z,100294.56
2023-02-05T14:17:47.234Z,100296.22
2023-02-05T14:20:32.015Z,100297.41
2023-02-05T14:23:01.616Z,100300.91
2023-02-05T14:25:48.467Z,100295.72
2023-02-05T14:28:16.843Z,100299.38
2023-02-05T14:30:51.408Z,100298.56
2023-02-05T14:33:38.574Z,100294.87
2023-02-05T14:36:56.208Z,100292.34
2023-02-05T14:39:38.925Z,100306.75
2023-02-05T14:42:10.511Z,100294.19
2023-02-05T14:44:45.461Z,100296.19
2023-02-05T14:47:27.766Z,100307.06
2023-02-05T14:50:11.857Z,100296.19
2023-02-05T14:52:52.792Z,100308.75
2023-02-05T14:58:07.571Z,100309.22
2023-02-05T15:00:40.462Z,100308.37
2023-02-05T15:03:18.411Z,100311.91
2023-02-05T15:05:51.387Z,100306.84
2023-02-05T15:08:34.501Z,100309.53
2023-02-05T15:11:25.800Z,100312.53
2023-02-05T15:14:21.895Z,100319.56
2023-02-05T15:17:07.968Z,100314.38
2023-02-05T15:19:43.426Z,100317.47
2023-02-05T15:22:37.986Z,100322.16
2023-02-05T15:25:24.219Z,100309.75
2023-02-05T15:27:59.963Z,100310.75
2023-02-05T15:30:40.212Z,100309.09
2023-02-05T15:33:19.712Z,100304.87
2023-02-05T15:35:51.951Z,100311.53
2023-02-05T15:38:48.884Z,100311.00
2023-02-05T15:41:17.414Z,100305.13
2023-02-05T15:44:01.388Z,100305.56
2023-02-05T15:46:34.249Z,100306.56
2023-02-05T15:49:02.539Z,100308.56
2023-02-05T15:51:37.205Z,100308.88
2023-02-05T15:54:06.963Z,100310.03
2023-02-05T15:56:37.010Z,100304.81
2023-02-05T15:59:07.092Z,100306.97
2023-02-05T16:01:57.996Z,100315.16
2023-02-05T16:04:34.928Z,100328.16
2023-02-05T16:07:04.338Z,100332.09
2023-02-05T16:09:35.410Z,100337.75
2023-02-05T16:12:14.783Z,100346.94
2023-02-05T16:14:44.576Z,100341.06
2023-02-05T16:17:13.076Z,100342.50
2023-02-05T16:19:57.205Z,100336.47
2023-02-05T16:22:44.163Z,100333.25
2023-02-05T16:25:25.488Z,100336.34
2023-02-05T16:27:56.789Z,100340.03
2023-02-05T16:30:35.162Z,100342.31
2023-02-05T16:33:07.347Z,100341.16
2023-02-05T16:35:46.871Z,100344.44
2023-02-05T16:38:18.263Z,100352.94
2023-02-05T16:40:53.585Z,100356.06
2023-02-05T16:43:37.791Z,100355.31
2023-02-05T16:46:10.036Z,100354.78
2023-02-05T16:48:49.054Z,100360.59
2023-02-05T16:51:46.642Z,100364.41
2023-02-05T16:54:15.470Z,100368.22
2023-02-05T16:56:51.059Z,100369.34
2023-02-05T16:59:25.008Z,100375.53
2023-02-05T17:01:54.302Z,100370.91
2023-02-05T17:04:38.679Z,100374.56
2023-02-05T17:07:19.019Z,100376.53
2023-02-05T17:09:48.405Z,100383.31
2023-02-05T17:12:23.453Z,100372.78
2023-02-05T17:15:00.427Z,100372.22
2023-02-05T17:17:31.900Z,100372.53
2023-02-05T17:20:19.197Z,100381.09
2023-02-05T17:23:06.559Z,100380.56
2023-02-05T17:25:56.351Z,100381.00
2023-02-05T17:28:28.937Z,100378.63
2023-02-05T17:30:59.582Z,100379.59
2023-02-05T17:33:29.889Z,100382.97
2023-02-05T17:36:00.797Z,100373.28
2023-02-05T17:38:30.997Z,100378.75
2023-02-05T17:41:19.714Z,100372.72
2023-02-05T17:43:48.598Z,100374.84
2023-02-05T17:46:17.810Z,100379.78
2023-02-05T17:48:46.300Z,100377.38
2023-02-05T17:51:23.499Z,100378.63
2023-02-05T17:53:52.837Z,100368.94
2023-02-05T17:56:22.669Z,100377.25
2023-02-05T17:58:52.535Z,100374.28
2023-02-05T18:01:21.749Z,100377.69
2023-02-05T18:03:51.215Z,100374.47
2023-02-05T18:06:20.530Z,100375.44
2023-02-05T18:08:49.856Z,100379.63
2023-02-05T18:11:18.515Z,100382.59
2023-02-05T18:13:47.070Z,100388.91
2023-02-05T18:16:16.145Z,100389.22
2023-02-05T18:18:44.159Z,100393.84
2023-02-05T18:24:53.207Z,100398.78
2023-02-05T18:27:22.881Z,100397.63
2023-02-05T18:29:52.150Z,100408.88
2023-02-05T18:32:20.555Z,100404.22
2023-02-05T18:34:48.996Z,100412.66
2023-02-05T18:37:27.909Z,100413.34
2023-02-05T18:39:58.364Z,100409.72
2023-02-05T18:42:30.351Z,100417.00
2023-02-05T18:44:58.500Z,100415.47
2023-02-05T18:47:29.989Z,100413.91
2023-02-05T18:49:59.418Z,100414.34
2023-02-05T18:52:32.616Z,100415.47
2023-02-05T18:55:01.701Z,100422.03
2023-02-05T18:57:30.933Z,100413.31
2023-02-05T19:00:03.561Z,100417.25
2023-02-05T19:02:42.923Z,100423.84
2023-02-05T19:05:12.645Z,100423.72
2023-02-05T19:07:41.453Z,100432.31
2023-02-05T19:10:11.712Z,100425.44
2023-02-05T19:12:39.848Z,100429.34
2023-02-05T19:15:11.591Z,100429.19
2023-02-05T19:17:40.647Z,100426.94
2023-02-05T19:20:09.865Z,100423.16
2023-02-05T19:22:41.370Z,100431.88
2023-02-05T19:25:10.631Z,100432.97
2023-02-05T19:27:39.455Z,100426.81
2023-02-05T19:30:10.519Z,100420.34
2023-02-05T19:32:41.802Z,100427.78
2023-02-05T19:35:11.292Z,100426.78
2023-02-05T19:37:39.809Z,100426.09
2023-02-05T19:40:13.026Z,100424.00
2023-02-05T19:42:46.796Z,100429.59
2023-02-05T19:45:16.190Z,100445.03
2023-02-05T19:47:44.792Z,100436.34
2023-02-05T19:50:13.698Z,100438.25
2023-02-05T19:52:44.657Z,100446.41
2023-02-05T19:55:13.142Z,100442.66
2023-02-05T19:57:45.618Z,100441.66
2023-02-05T20:00:14.466Z,100438.41
2023-02-05T20:02:42.963Z,100439.94
2023-02-05T20:05:12.293Z,100436.41
2023-02-05T20:07:41.682Z,100432.22
2023-02-05T20:10:10.386Z,100433.59
2023-02-05T20:12:39.501Z,100428.13
2023-02-05T20:15:09.157Z,100435.41
2023-02-05T20:17:37.717Z,100438.34
2023-02-05T20:20:15.784Z,100440.69
2023-02-05T20:22:54.856Z,100451.22
2023-02-05T20:25:23.130Z,100448.38
2023-02-05T20:27:52.203Z,100457.63
2023-02-05T20:30:39.501Z,100451.75
2023-02-05T20:33:08.433Z,100452.03
2023-02-05T20:35:43.570Z,100449.38
2023-02-05T20:38:12.693Z,100458.06
2023-02-05T20:40:40.954Z,100464.25
2023-02-05T20:43:10.132Z,100461.31
2023-02-05T20:45:38.866Z,100462.00
2023-02-05T20:48:09.811Z,100466.41
2023-02-05T20:50:38.471Z,100463.38
2023-02-05T20:53:08.478Z,100472.47
2023-02-05T20:55:37.529Z,100483.00
2023-02-05T20:58:05.939Z,100487.63
2023-02-05T21:00:34.255Z,100498.37
2023-02-05T21:03:03.532Z,100494.78
2023-02-05T21:05:52.269Z,100496.00
2023-02-05T21:08:21.965Z,100492.94
2023-02-05T21:10:50.226Z,100498.06
2023-02-05T21:13:18.312Z,100504.81
2023-02-05T21:15:58.251Z,100501.97
2023-02-05T21:18:28.096Z,100520.81
2023-02-05T21:20:56.524Z,100511.41
2023-02-05T21:23:24.360Z,100508.16
2023-02-05T21:25:51.699Z,100508.03
2023-02-05T21:28:20.360Z,100512.19
2023-02-05T21:30:51.303Z,100507.97
2023-02-05T21:33:19.213Z,100512.19
2023-02-05T21:35:46.267Z,100508.69
2023-02-05T21:38:13.936Z,100511.34
2023-02-05T21:40:42.057Z,100521.56
2023-02-05T21:43:10.306Z,100524.22
2023-02-05T21:45:38.139Z,100523.50
2023-02-05T21:48:05.940Z,100532.25
2023-02-05T21:50:33.061Z,100535.87
2023-02-05T21:53:00.844Z,100538.41
2023-02-05T21:55:28.230Z,100540.81
2023-02-05T21:57:55.488Z,100546.88
2023-02-05T22:00:23.117Z,100548.94
2023-02-05T22:02:49.901Z,100559.84
2023-02-05T22:05:17.115Z,100558.44
2023-02-05T22:07:44.222Z,100552.00
2023-02-05T22:10:11.702Z,100558.69
2023-02-05T22:12:39.255Z,100569.59
2023-02-05T22:15:06.718Z,100569.22
2023-02-05T22:17:34.010Z,100573.25
2023-02-05T22:20:01.305Z,100572.87
2023-02-05T22:22:28.559Z,100572.87
2023-02-05T22:24:55.879Z,100575.53
2023-02-05T22:27:23.458Z,100573.59
2023-02-05T22:29:50.730Z,100566.97
2023-02-05T22:32:17.970Z,100569.37
2023-02-05T22:34:45.248Z,100571.78
2023-02-05T22:37:12.570Z,100564.16
2023-02-05T22:39:39.855Z,100568.06
2023-02-05T22:42:07.204Z,100566.37
2023-02-05T22:44:35.064Z,100564.69
2023-02-05T22:47:01.962Z,100568.91
2023-02-05T22:49:29.259Z,100568.44
2023-02-05T22:51:56.908Z,100571.22
2023-02-05T22:54:24.144Z,100576.44
2023-02-05T22:56:51.764Z,100578.25
2023-02-05T22:59:19.005Z,100585.06
2023-02-05T23:01:46.308Z,100580.91
2023-02-05T23:04:13.586Z,100575.72
2023-02-05T23:06:43.297Z,100574.62
2023-02-05T23:09:16.658Z,100581.31
2023-02-05T23:11:45.042Z,100569.81
2023-02-05T23:14:14.377Z,100588.31
2023-02-05T23:16:44.108Z,100588.31
2023-02-05T23:19:14.815Z,100591.94
2023-02-05T23:21:42.828Z,100603.69
2023-02-05T23:24:10.979Z,100605.38
2023-02-05T23:26:43.019Z,100596.81
2023-02-05T23:29:12.682Z,100607.31
2023-02-05T23:31:40.807Z,100609.16
2023-02-05T23:34:07.988Z,100603.72
2023-02-05T23:36:35.780Z,100601.66
2023-02-05T23:39:02.609Z,100606.00
2023-02-05T23:41:36.368Z,100608.06
2023-02-05T23:44:06.941Z,100608.66
2023-02-05T23:46:35.203Z,100606.84
2023-02-05T23:49:03.172Z,100609.63
2023-02-05T23:51:31.039Z,100608.78
2023-02-05T23:53:57.882Z,100609.75
2023-02-05T23:56:25.158Z,100616.41
2023-02-05T23:58:52.370Z,100616.03
